createdAt,value
2018-07-22T00:01:30.851Z,18.60
2018-07-22T00:03:58.408Z,18.60
2018-07-22T00:06:25.948Z,18.60
2018-07-22T00:08:53.856Z,18.60
2018-07-22T00:11:21.372Z,18.60
2018-07-22T00:13:48.884Z,18.60
2018-07-22T00:16:16.511Z,18.60
2018-07-22T00:18:44.031Z,18.60
2018-07-22T00:21:11.544Z,18.60
2018-07-22T00:23:39.076Z,18.70
2018-07-22T00:26:06.585Z,18.70
2018-07-22T00:28:34.103Z,18.70
2018-07-22T00:31:01.607Z,18.70
2018-07-22T00:33:29.141Z,18.70
2018-07-22T00:35:56.641Z,18.70
2018-07-22T00:38:24.147Z,18.60
2018-07-22T00:40:51.656Z,18.70
2018-07-22T00:43:19.180Z,18.70
2018-07-22T00:45:46.701Z,18.60
2018-07-22T00:48:14.227Z,18.60
2018-07-22T00:50:41.748Z,18.70
2018-07-22T00:53:09.260Z,18.70
2018-07-22T00:55:36.776Z,18.70
2018-07-22T00:58:04.308Z,18.70
2018-07-22T01:00:31.820Z,18.80
2018-07-22T01:02:59.431Z,18.70
2018-07-22T01:05:27.206Z,18.70
2018-07-22T01:07:54.751Z,18.80
2018-07-22T01:10:22.272Z,18.80
2018-07-22T01:12:49.816Z,18.80
2018-07-22T01:15:17.351Z,18.80
2018-07-22T01:17:44.900Z,18.80
2018-07-22T01:20:12.430Z,18.80
2018-07-22T01:22:39.965Z,18.80
2018-07-22T01:25:07.679Z,18.90
2018-07-22T01:27:35.215Z,18.90
2018-07-22T01:30:03.866Z,18.90
2018-07-22T01:32:31.391Z,19.00
2018-07-22T01:34:58.937Z,19.00
2018-07-22T01:37:26.482Z,18.90
2018-07-22T01:39:54.007Z,18.90
2018-07-22T01:42:21.540Z,18.90
2018-07-22T01:44:49.072Z,18.90
2018-07-22T01:47:16.601Z,18.80
2018-07-22T01:49:44.127Z,18.80
2018-07-22T01:52:11.651Z,18.80
2018-07-22T01:54:39.204Z,18.80
2018-07-22T01:57:06.740Z,18.80
2018-07-22T01:59:34.291Z,18.80
2018-07-22T02:02:01.837Z,18.80
2018-07-22T02:04:29.383Z,18.80
2018-07-22T02:06:56.921Z,18.80
2018-07-22T02:09:24.441Z,18.80
2018-07-22T02:11:51.993Z,18.80
2018-07-22T02:14:20.848Z,18.80
2018-07-22T02:16:48.379Z,18.80
2018-07-22T02:19:15.913Z,18.80
2018-07-22T02:21:43.456Z,18.70
2018-07-22T02:24:10.983Z,18.70
2018-07-22T02:26:38.508Z,18.70
2018-07-22T02:29:06.093Z,18.60
2018-07-22T02:31:33.639Z,18.60
2018-07-22T02:34:01.172Z,18.60
2018-07-22T02:36:28.718Z,18.50
2018-07-22T02:38:56.244Z,18.50
2018-07-22T02:41:23.792Z,18.50
2018-07-22T02:43:51.323Z,18.50
2018-07-22T02:46:18.832Z,18.50
2018-07-22T02:48:46.356Z,18.50
2018-07-22T02:51:13.913Z,18.50
2018-07-22T02:53:41.440Z,18.40
2018-07-22T02:56:08.995Z,18.40
2018-07-22T02:58:36.527Z,18.40
2018-07-22T03:01:04.096Z,18.40
2018-07-22T03:06:45.256Z,18.40
2018-07-22T03:09:12.796Z,18.40
2018-07-22T03:11:40.328Z,18.30
2018-07-22T03:14:07.840Z,18.40
2018-07-22T03:16:35.353Z,18.40
2018-07-22T03:19:02.879Z,18.40
2018-07-22T03:21:30.384Z,18.40
2018-07-22T03:23:58.180Z,18.40
2018-07-22T03:26:25.852Z,18.40
2018-07-22T03:28:53.599Z,18.50
2018-07-22T03:31:21.112Z,18.50
2018-07-22T03:33:48.634Z,18.50
2018-07-22T03:36:16.139Z,18.50
2018-07-22T03:38:43.649Z,18.50
2018-07-22T03:41:11.155Z,18.50
2018-07-22T03:43:38.692Z,18.50
2018-07-22T03:46:06.421Z,18.50
2018-07-22T03:48:33.963Z,18.50
2018-07-22T03:51:01.480Z,18.60
2018-07-22T03:53:29.018Z,18.60
2018-07-22T03:55:56.659Z,18.60
2018-07-22T03:58:24.172Z,18.70
2018-07-22T04:00:51.684Z,18.70
2018-07-22T04:03:19.209Z,18.80
2018-07-22T04:05:46.724Z,18.90
2018-07-22T04:08:14.244Z,18.90
2018-07-22T04:10:41.771Z,19.00
2018-07-22T04:13:09.307Z,19.10
2018-07-22T04:15:36.951Z,19.20
2018-07-22T04:18:04.463Z,19.30
2018-07-22T04:20:31.964Z,19.50
2018-07-22T04:22:59.484Z,19.60
2018-07-22T04:25:26.998Z,19.80
2018-07-22T04:27:54.507Z,19.90
2018-07-22T04:30:22.017Z,20.00
2018-07-22T04:32:49.561Z,20.20
2018-07-22T04:35:17.069Z,20.40
2018-07-22T04:37:44.567Z,20.50
2018-07-22T04:40:12.092Z,20.70
2018-07-22T04:42:39.597Z,20.90
2018-07-22T04:45:07.560Z,21.00
2018-07-22T04:47:35.075Z,21.20
2018-07-22T04:50:02.600Z,21.40
2018-07-22T04:52:30.117Z,21.50
2018-07-22T04:54:57.640Z,21.60
2018-07-22T04:57:25.148Z,21.70
2018-07-22T04:59:52.665Z,21.90
2018-07-22T05:02:20.179Z,22.20
2018-07-22T05:04:47.695Z,22.50
2018-07-22T05:07:15.199Z,23.00
2018-07-22T05:09:42.712Z,23.50
2018-07-22T05:12:10.252Z,24.10
2018-07-22T05:14:37.796Z,24.40
2018-07-22T05:17:05.327Z,24.70
2018-07-22T05:19:32.876Z,25.10
2018-07-22T05:22:00.396Z,25.20
2018-07-22T05:24:27.932Z,25.30
2018-07-22T05:26:55.458Z,25.40
2018-07-22T05:29:23.001Z,25.60
2018-07-22T05:31:50.537Z,25.70
2018-07-22T05:34:18.086Z,25.80
2018-07-22T05:36:45.619Z,25.90
2018-07-22T05:39:13.161Z,26.20
2018-07-22T05:41:41.340Z,26.40
2018-07-22T05:44:08.897Z,26.50
2018-07-22T05:46:36.435Z,26.40
2018-07-22T05:49:04.423Z,26.40
2018-07-22T05:51:32.317Z,26.50
2018-07-22T05:53:59.902Z,27.00
2018-07-22T05:56:27.423Z,27.70
2018-07-22T05:58:54.955Z,28.10
2018-07-22T06:01:22.519Z,28.50
2018-07-22T06:03:50.068Z,28.90
2018-07-22T06:06:17.657Z,29.20
2018-07-22T06:08:45.195Z,29.20
2018-07-22T06:11:12.744Z,29.30
2018-07-22T06:13:40.436Z,29.40
2018-07-22T06:16:08.015Z,29.40
2018-07-22T06:18:35.547Z,29.60
2018-07-22T06:21:03.092Z,29.80
2018-07-22T06:23:30.700Z,29.70
2018-07-22T06:25:58.188Z,29.40
2018-07-22T06:28:25.720Z,29.00
2018-07-22T06:30:53.260Z,28.70
2018-07-22T06:33:20.840Z,28.30
2018-07-22T06:35:48.381Z,28.00
2018-07-22T06:38:15.924Z,27.70
2018-07-22T06:40:43.471Z,28.30
2018-07-22T06:43:11.000Z,29.40
2018-07-22T06:45:38.547Z,29.60
2018-07-22T06:48:06.076Z,29.40
2018-07-22T06:50:33.642Z,29.90
2018-07-22T06:53:01.176Z,30.70
2018-07-22T06:55:28.708Z,31.40
2018-07-22T06:57:56.256Z,32.10
2018-07-22T07:00:23.796Z,32.60
2018-07-22T07:02:51.344Z,32.90
2018-07-22T07:05:18.932Z,33.00
2018-07-22T07:10:14.039Z,33.10
2018-07-22T07:12:41.566Z,33.10
2018-07-22T07:15:09.091Z,33.10
2018-07-22T07:17:36.702Z,33.00
2018-07-22T07:20:04.417Z,32.90
2018-07-22T07:22:31.941Z,32.80
2018-07-22T07:24:59.452Z,32.80
2018-07-22T07:27:26.988Z,33.00
2018-07-22T07:29:54.512Z,33.10
2018-07-22T07:32:22.043Z,33.50
2018-07-22T07:34:49.553Z,33.90
2018-07-22T07:37:17.065Z,34.20
2018-07-22T07:39:44.576Z,34.40
2018-07-22T07:42:12.145Z,34.40
2018-07-22T07:44:39.622Z,34.50
2018-07-22T07:47:07.144Z,34.50
2018-07-22T07:49:34.661Z,34.60
2018-07-22T07:52:02.179Z,34.70
2018-07-22T07:54:29.695Z,34.70
2018-07-22T07:56:57.221Z,34.60
2018-07-22T07:59:24.793Z,34.50
2018-07-22T08:01:52.309Z,34.50
2018-07-22T08:04:19.835Z,34.40
2018-07-22T08:06:47.347Z,34.50
2018-07-22T08:09:14.865Z,34.50
2018-07-22T08:11:42.464Z,34.40
2018-07-22T08:14:09.984Z,34.20
2018-07-22T08:16:37.516Z,34.10
2018-07-22T08:19:05.250Z,34.10
2018-07-22T08:21:32.804Z,33.90
2018-07-22T08:24:00.300Z,34.00
2018-07-22T08:26:27.844Z,33.90
2018-07-22T08:29:32.468Z,34.10
2018-07-22T08:32:00.779Z,34.10
2018-07-22T08:34:28.363Z,33.80
2018-07-22T08:36:55.948Z,33.80
2018-07-22T08:39:25.409Z,33.90
2018-07-22T08:41:53.664Z,33.90
2018-07-22T08:44:21.209Z,33.90
2018-07-22T08:46:48.744Z,34.10
2018-07-22T08:49:16.317Z,34.30
2018-07-22T08:51:43.881Z,34.70
2018-07-22T08:54:11.529Z,34.90
2018-07-22T08:56:39.124Z,35.00
2018-07-22T08:59:06.673Z,34.90
2018-07-22T09:01:34.203Z,35.00
2018-07-22T09:04:01.764Z,35.10
2018-07-22T09:06:29.580Z,35.30
2018-07-22T09:08:57.103Z,35.20
2018-07-22T09:11:25.212Z,35.30
2018-07-22T09:14:24.684Z,35.40
2018-07-22T09:16:52.196Z,35.50
2018-07-22T09:19:19.769Z,35.40
2018-07-22T09:21:47.289Z,35.40
2018-07-22T09:24:14.794Z,35.20
2018-07-22T09:26:42.307Z,35.20
2018-07-22T09:29:09.819Z,35.30
2018-07-22T09:31:37.340Z,35.70
2018-07-22T09:34:04.861Z,35.80
2018-07-22T09:36:32.498Z,35.80
2018-07-22T09:38:59.912Z,35.80
2018-07-22T09:41:27.435Z,35.20
2018-07-22T09:43:54.950Z,34.70
2018-07-22T09:46:22.488Z,34.60
2018-07-22T09:48:49.995Z,35.00
2018-07-22T09:51:17.512Z,35.60
2018-07-22T09:53:45.070Z,35.70
2018-07-22T09:56:12.551Z,35.10
2018-07-22T09:58:40.056Z,34.90
2018-07-22T10:01:13.012Z,35.10
2018-07-22T10:03:40.534Z,35.40
2018-07-22T10:06:08.043Z,35.60
2018-07-22T10:08:35.543Z,35.60
2018-07-22T10:11:03.150Z,35.70
2018-07-22T10:13:30.679Z,35.60
2018-07-22T10:18:25.813Z,35.30
2018-07-22T10:20:53.355Z,35.00
2018-07-22T10:25:48.491Z,33.30
2018-07-22T10:28:16.029Z,32.70
2018-07-22T10:30:43.571Z,32.70
2018-07-22T10:33:11.108Z,33.10
2018-07-22T10:35:38.652Z,33.70
2018-07-22T10:38:06.196Z,34.30
2018-07-22T10:40:33.732Z,35.10
2018-07-22T10:43:01.279Z,35.60
2018-07-22T10:45:28.888Z,35.40
2018-07-22T10:47:56.427Z,35.10
2018-07-22T10:50:23.984Z,35.20
2018-07-22T10:52:51.531Z,35.50
2018-07-22T10:57:46.693Z,35.70
2018-07-22T11:00:14.235Z,35.50
2018-07-22T11:02:41.800Z,34.80
2018-07-22T11:05:09.736Z,34.50
2018-07-22T11:07:37.283Z,34.50
2018-07-22T11:10:05.372Z,34.60
2018-07-22T11:12:32.895Z,34.80
2018-07-22T11:15:00.408Z,34.70
2018-07-22T11:17:27.935Z,34.40
2018-07-22T11:19:55.430Z,34.00
2018-07-22T11:22:22.944Z,33.90
2018-07-22T11:24:50.450Z,34.00
2018-07-22T11:27:24.640Z,34.10
2018-07-22T11:29:52.161Z,34.30
2018-07-22T11:32:29.900Z,34.50
2018-07-22T11:34:57.403Z,34.50
2018-07-22T11:37:24.927Z,34.30
2018-07-22T11:39:52.435Z,34.10
2018-07-22T11:42:19.985Z,33.90
2018-07-22T11:44:47.496Z,34.00
2018-07-22T11:47:15.016Z,34.00
2018-07-22T11:49:42.516Z,34.20
2018-07-22T11:52:13.355Z,34.40
2018-07-22T11:57:08.456Z,34.80
2018-07-22T11:59:35.972Z,35.00
2018-07-22T12:05:14.060Z,34.70
2018-07-22T12:07:41.595Z,35.00
2018-07-22T12:10:09.099Z,34.90
2018-07-22T12:12:36.667Z,34.80
2018-07-22T12:15:25.259Z,35.00
2018-07-22T12:17:52.864Z,34.80
2018-07-22T12:20:20.409Z,34.40
2018-07-22T12:22:47.928Z,34.10
2018-07-22T12:25:15.447Z,34.40
2018-07-22T12:27:42.995Z,34.60
2018-07-22T12:30:10.521Z,34.80
2018-07-22T12:32:38.023Z,34.90
2018-07-22T12:35:05.744Z,34.90
2018-07-22T12:37:33.253Z,34.70
2018-07-22T12:40:00.769Z,34.40
2018-07-22T12:42:28.280Z,34.20
2018-07-22T12:44:55.793Z,34.00
2018-07-22T12:47:23.302Z,34.00
2018-07-22T12:49:50.819Z,34.00
2018-07-22T12:52:18.331Z,34.00
2018-07-22T12:54:45.953Z,33.70
2018-07-22T12:57:13.464Z,33.60
2018-07-22T12:59:40.974Z,33.50
2018-07-22T13:02:08.483Z,33.50
2018-07-22T13:04:36.005Z,33.50
2018-07-22T13:07:03.562Z,33.60
2018-07-22T13:09:31.084Z,33.50
2018-07-22T13:11:58.636Z,33.50
2018-07-22T13:14:26.149Z,33.40
2018-07-22T13:16:53.662Z,33.40
2018-07-22T13:19:21.184Z,33.10
2018-07-22T13:21:48.680Z,33.00
2018-07-22T13:24:16.199Z,32.90
2018-07-22T13:26:43.736Z,32.80
2018-07-22T13:29:11.248Z,32.80
2018-07-22T13:31:38.765Z,32.70
2018-07-22T13:34:06.289Z,32.90
2018-07-22T13:36:33.815Z,33.00
2018-07-22T13:39:01.346Z,33.20
2018-07-22T13:41:28.868Z,33.20
2018-07-22T13:43:56.380Z,33.20
2018-07-22T13:46:23.892Z,33.30
2018-07-22T13:48:51.404Z,33.70
2018-07-22T13:51:18.928Z,33.90
2018-07-22T13:53:46.439Z,34.00
2018-07-22T13:56:13.955Z,34.00
2018-07-22T13:58:41.486Z,34.10
2018-07-22T14:01:09.011Z,33.70
2018-07-22T14:03:36.540Z,33.40
2018-07-22T14:06:04.063Z,33.40
2018-07-22T14:08:31.568Z,33.30
2018-07-22T14:10:59.088Z,33.40
2018-07-22T14:13:26.599Z,33.30
2018-07-22T14:15:54.113Z,33.20
2018-07-22T14:18:21.631Z,33.20
2018-07-22T14:20:49.154Z,33.00
2018-07-22T14:23:16.660Z,32.70
2018-07-22T14:25:44.179Z,32.40
2018-07-22T14:28:11.718Z,32.20
2018-07-22T14:30:39.216Z,32.10
2018-07-22T14:33:06.723Z,31.90
2018-07-22T14:38:01.829Z,32.40
2018-07-22T14:40:29.359Z,33.00
2018-07-22T14:42:56.875Z,33.70
2018-07-22T14:45:24.385Z,34.30
2018-07-22T14:47:51.899Z,34.70
2018-07-22T14:50:19.408Z,34.80
2018-07-22T14:52:46.925Z,34.60
2018-07-22T14:55:14.439Z,34.50
2018-07-22T14:57:41.949Z,34.30
2018-07-22T15:00:09.455Z,34.20
2018-07-22T15:02:37.008Z,34.00
2018-07-22T15:05:05.007Z,33.80
2018-07-22T15:07:32.524Z,33.60
2018-07-22T15:10:00.019Z,33.70
2018-07-22T15:12:27.572Z,33.30
2018-07-22T15:14:55.100Z,32.80
2018-07-22T15:17:22.625Z,32.40
2018-07-22T15:19:50.188Z,32.10
2018-07-22T15:22:17.725Z,32.10
2018-07-22T15:27:12.859Z,31.90
2018-07-22T15:29:40.381Z,31.60
2018-07-22T15:32:07.924Z,31.50
2018-07-22T15:34:35.439Z,31.50
2018-07-22T15:37:02.985Z,31.60
2018-07-22T15:39:30.512Z,32.10
2018-07-22T15:41:58.072Z,32.20
2018-07-22T15:44:25.623Z,32.00
2018-07-22T15:46:53.180Z,32.20
2018-07-22T15:49:20.711Z,32.40
2018-07-22T15:51:48.247Z,32.40
2018-07-22T15:54:15.782Z,32.30
2018-07-22T15:56:43.326Z,32.10
2018-07-22T15:59:10.872Z,31.90
2018-07-22T16:01:38.428Z,31.80
2018-07-22T16:04:06.237Z,31.70
2018-07-22T16:06:33.771Z,31.50
2018-07-22T16:09:01.316Z,31.20
2018-07-22T16:11:28.856Z,31.00
2018-07-22T16:13:56.383Z,30.80
2018-07-22T16:16:23.875Z,30.70
2018-07-22T16:18:51.375Z,30.50
2018-07-22T16:21:18.891Z,30.40
2018-07-22T16:23:46.405Z,30.40
2018-07-22T16:26:41.775Z,30.40
2018-07-22T16:29:09.288Z,30.30
2018-07-22T16:31:36.797Z,30.20
2018-07-22T16:34:04.324Z,30.20
2018-07-22T16:36:31.837Z,30.10
2018-07-22T16:38:59.428Z,30.10
2018-07-22T16:41:26.941Z,30.00
2018-07-22T16:43:54.484Z,29.80
2018-07-22T16:46:21.983Z,29.80
2018-07-22T16:48:49.505Z,29.60
2018-07-22T16:51:17.008Z,29.50
2018-07-22T16:53:44.541Z,29.40
2018-07-22T16:56:12.072Z,29.30
2018-07-22T16:58:39.588Z,29.20
2018-07-22T17:01:07.145Z,29.10
2018-07-22T17:03:34.627Z,28.80
2018-07-22T17:06:02.144Z,28.70
2018-07-22T17:08:29.648Z,28.60
2018-07-22T17:10:57.160Z,28.60
2018-07-22T17:13:24.680Z,28.50
2018-07-22T17:15:52.612Z,28.50
2018-07-22T17:18:20.132Z,28.40
2018-07-22T17:20:47.676Z,28.50
2018-07-22T17:23:15.187Z,28.40
2018-07-22T17:25:42.699Z,28.40
2018-07-22T17:28:10.228Z,28.40
2018-07-22T17:30:37.744Z,28.30
2018-07-22T17:33:05.300Z,28.30
2018-07-22T17:35:32.840Z,28.20
2018-07-22T17:38:00.341Z,28.00
2018-07-22T17:40:27.860Z,27.90
2018-07-22T17:42:55.367Z,27.80
2018-07-22T17:45:22.892Z,27.60
2018-07-22T17:47:50.400Z,27.60
2018-07-22T17:50:17.937Z,27.50
2018-07-22T17:52:45.445Z,27.30
2018-07-22T17:55:12.968Z,27.30
2018-07-22T17:57:40.489Z,27.20
2018-07-22T18:00:08.400Z,27.10
2018-07-22T18:02:37.192Z,27.10
2018-07-22T18:07:32.300Z,27.00
2018-07-22T18:09:59.825Z,27.00
2018-07-22T18:12:27.369Z,26.90
2018-07-22T18:14:54.905Z,26.90
2018-07-22T18:17:22.447Z,26.80
2018-07-22T18:19:50.123Z,26.70
2018-07-22T18:22:17.528Z,26.60
2018-07-22T18:24:45.044Z,26.50
2018-07-22T18:27:12.576Z,26.40
2018-07-22T18:32:07.736Z,26.20
2018-07-22T18:34:35.261Z,26.10
2018-07-22T18:37:02.888Z,25.90
2018-07-22T18:45:55.373Z,25.60
2018-07-22T18:48:22.976Z,25.50
2018-07-22T18:50:50.502Z,25.30
2018-07-22T18:53:18.021Z,25.20
2018-07-22T18:55:45.575Z,25.10
2018-07-22T18:58:13.104Z,25.00
2018-07-22T19:00:40.631Z,25.00
2018-07-22T19:03:08.181Z,24.80
2018-07-22T19:08:50.329Z,24.60
2018-07-22T19:11:17.859Z,24.40
2018-07-22T19:13:45.383Z,24.20
2018-07-22T19:16:12.908Z,24.10
2018-07-22T19:18:40.424Z,24.10
2018-07-22T19:21:07.956Z,24.00
2018-07-22T19:23:35.493Z,23.90
2018-07-22T19:26:03.037Z,23.80
2018-07-22T19:28:30.553Z,23.70
2018-07-22T19:30:58.064Z,23.60
2018-07-22T19:33:25.580Z,23.50
2018-07-22T19:35:53.079Z,23.40
2018-07-22T19:38:20.588Z,23.20
2018-07-22T19:40:48.111Z,23.20
2018-07-22T19:43:33.484Z,23.10
2018-07-22T19:46:00.989Z,23.00
2018-07-22T19:48:28.519Z,23.00
2018-07-22T19:50:56.028Z,22.90
2018-07-22T19:53:23.536Z,22.80
2018-07-22T19:55:51.031Z,22.70
2018-07-22T19:58:18.563Z,22.70
2018-07-22T20:00:46.140Z,22.60
2018-07-22T20:03:13.583Z,22.50
2018-07-22T20:05:41.097Z,22.40
2018-07-22T20:08:08.615Z,22.30
2018-07-22T20:10:36.128Z,22.20
2018-07-22T20:13:03.702Z,22.10
2018-07-22T20:15:31.233Z,22.10
2018-07-22T20:17:58.769Z,22.00
2018-07-22T20:20:26.308Z,21.90
2018-07-22T20:22:53.828Z,21.80
2018-07-22T20:25:21.340Z,21.70
2018-07-22T20:27:48.872Z,21.70
2018-07-22T20:30:16.408Z,21.60
2018-07-22T20:32:43.948Z,21.60
2018-07-22T20:35:11.480Z,21.60
2018-07-22T20:37:39.012Z,21.60
2018-07-22T20:40:06.566Z,21.60
2018-07-22T20:42:34.124Z,21.60
2018-07-22T20:45:01.662Z,21.60
2018-07-22T20:47:29.180Z,21.50
2018-07-22T20:49:56.746Z,21.60
2018-07-22T20:52:24.275Z,21.60
2018-07-22T20:54:51.803Z,21.60
2018-07-22T20:57:19.319Z,21.60
2018-07-22T20:59:46.856Z,21.60
2018-07-22T21:02:14.395Z,21.60
2018-07-22T21:04:41.977Z,21.60
2018-07-22T21:10:31.420Z,21.60
2018-07-22T21:13:26.655Z,21.60
2018-07-22T21:18:21.948Z,21.50
2018-07-22T21:20:49.466Z,21.50
2018-07-22T21:23:16.984Z,21.60
2018-07-22T21:25:44.495Z,21.60
2018-07-22T21:28:12.012Z,21.70
2018-07-22T21:30:39.535Z,21.70
2018-07-22T21:33:07.043Z,21.70
2018-07-22T21:35:34.555Z,21.70
2018-07-22T21:38:02.059Z,21.60
2018-07-22T21:40:29.592Z,21.60
2018-07-22T21:42:57.091Z,21.60
2018-07-22T21:45:30.590Z,21.50
2018-07-22T21:51:09.525Z,21.40
2018-07-22T21:53:37.027Z,21.30
2018-07-22T22:20:21.520Z,20.80
2018-07-22T22:22:49.057Z,20.70
2018-07-22T22:27:44.531Z,20.60
2018-07-22T22:30:13.472Z,20.60
2018-07-22T22:32:41.448Z,20.60
2018-07-22T22:35:09.304Z,20.60
2018-07-22T22:37:36.879Z,20.60
2018-07-22T22:40:04.597Z,20.60
2018-07-22T22:42:32.167Z,20.50
2018-07-22T22:44:59.704Z,20.50
2018-07-22T22:47:27.236Z,20.50
2018-07-22T22:50:01.062Z,20.50
2018-07-22T22:52:34.660Z,20.50
2018-07-22T22:55:02.444Z,20.50
2018-07-22T22:57:50.188Z,20.40
2018-07-22T23:00:17.717Z,20.30
2018-07-22T23:02:45.246Z,20.30
2018-07-22T23:05:30.708Z,20.30
2018-07-22T23:07:59.314Z,20.20
2018-07-22T23:10:26.841Z,20.10
2018-07-22T23:12:54.376Z,20.10
2018-07-22T23:15:21.911Z,20.00
2018-07-22T23:21:15.840Z,19.80
2018-07-22T23:23:43.471Z,19.60
2018-07-22T23:26:11.020Z,19.50
2018-07-22T23:28:38.595Z,19.40
2018-07-22T23:31:06.896Z,19.40
2018-07-22T23:33:34.427Z,19.30
2018-07-22T23:36:01.991Z,19.30
2018-07-22T23:38:29.544Z,19.20
2018-07-22T23:40:57.280Z,19.20
2018-07-22T23:43:24.815Z,19.10
2018-07-22T23:45:52.345Z,19.10
2018-07-22T23:48:19.933Z,19.10
2018-07-22T23:50:47.464Z,19.00
2018-07-22T23:53:15.008Z,19.00
2018-07-22T23:55:42.542Z,18.90
2018-07-22T23:58:10.076Z,18.90
